createdAt,value
2023-09-08T00:01:17.457Z,69.15
2023-09-08T00:04:22.288Z,69.09
2023-09-08T00:07:26.403Z,68.96
2023-09-08T00:10:30.409Z,69.23
2023-09-08T00:13:35.594Z,69.64
2023-09-08T00:16:40.391Z,69.53
2023-09-08T00:19:44.177Z,69.64
2023-09-08T00:22:47.951Z,69.75
2023-09-08T00:25:52.275Z,69.53
2023-09-08T00:28:57.424Z,69.78
2023-09-08T00:32:01.529Z,70.07
2023-09-08T00:35:08.765Z,69.73
2023-09-08T00:38:13.030Z,70.03
2023-09-08T00:41:17.022Z,69.93
2023-09-08T00:44:22.177Z,69.95
2023-09-08T00:47:26.304Z,70.18
2023-09-08T00:50:30.377Z,70.40
2023-09-08T00:53:34.341Z,70.46
2023-09-08T00:56:41.210Z,70.60
2023-09-08T00:59:46.922Z,70.89
2023-09-08T01:02:50.975Z,70.66
2023-09-08T01:05:55.238Z,70.69
2023-09-08T01:08:59.509Z,70.62
2023-09-08T01:12:06.819Z,71.39
2023-09-08T01:15:13.288Z,71.42
2023-09-08T01:18:17.076Z,71.21
2023-09-08T01:22:21.617Z,72.75
2023-09-08T01:25:28.358Z,71.37
2023-09-08T01:28:34.002Z,71.02
2023-09-08T01:31:39.229Z,71.01
2023-09-08T01:34:43.851Z,71.34
2023-09-08T01:37:48.748Z,71.34
2023-09-08T01:40:54.959Z,71.73
2023-09-08T01:43:58.985Z,71.65
2023-09-08T01:47:02.709Z,71.65
2023-09-08T01:50:07.891Z,71.86
2023-09-08T01:53:11.611Z,71.99
2023-09-08T01:56:16.626Z,72.18
2023-09-08T01:59:21.194Z,72.04
2023-09-08T02:02:24.636Z,71.95
2023-09-08T02:05:28.715Z,72.10
2023-09-08T02:08:32.599Z,72.12
2023-09-08T02:11:38.281Z,72.47
2023-09-08T02:14:42.326Z,72.28
2023-09-08T02:17:46.367Z,72.55
2023-09-08T02:20:50.155Z,72.44
2023-09-08T02:23:53.997Z,72.57
2023-09-08T02:26:59.293Z,72.56
2023-09-08T02:30:03.517Z,72.35
2023-09-08T02:33:08.188Z,72.37
2023-09-08T02:36:13.016Z,72.54
2023-09-08T02:39:17.838Z,72.57
2023-09-08T02:42:23.274Z,72.88
2023-09-08T02:45:27.112Z,72.59
2023-09-08T02:48:30.913Z,72.76
2023-09-08T02:51:35.076Z,72.86
2023-09-08T02:54:38.848Z,73.02
2023-09-08T02:57:44.630Z,73.30
2023-09-08T03:00:49.008Z,72.93
2023-09-08T03:03:52.816Z,72.95
2023-09-08T03:06:58.249Z,73.08
2023-09-08T03:10:01.861Z,73.13
2023-09-08T03:13:07.583Z,73.33
2023-09-08T03:16:11.825Z,73.20
2023-09-08T03:19:15.687Z,72.91
2023-09-08T03:22:19.413Z,73.12
2023-09-08T03:25:24.133Z,73.26
2023-09-08T03:28:29.231Z,73.35
2023-09-08T03:31:33.582Z,73.30
2023-09-08T03:34:41.355Z,73.42
2023-09-08T03:37:46.412Z,73.47
2023-09-08T03:40:50.104Z,73.49
2023-09-08T03:43:55.673Z,73.72
2023-09-08T03:47:01.751Z,73.52
2023-09-08T03:50:09.161Z,73.67
2023-09-08T03:53:13.740Z,73.58
2023-09-08T03:56:17.634Z,73.71
2023-09-08T03:59:22.908Z,73.93
2023-09-08T04:02:27.714Z,73.68
2023-09-08T04:05:31.922Z,73.62
2023-09-08T04:08:35.934Z,73.47
2023-09-08T04:11:39.760Z,73.88
2023-09-08T04:14:45.167Z,73.66
2023-09-08T04:17:48.972Z,73.71
2023-09-08T04:20:52.842Z,73.49
2023-09-08T04:23:56.639Z,73.73
2023-09-08T04:27:00.497Z,73.48
2023-09-08T04:30:06.865Z,73.81
2023-09-08T04:33:11.033Z,73.56
2023-09-08T04:36:14.967Z,73.55
2023-09-08T04:39:19.097Z,73.58
2023-09-08T04:42:22.840Z,73.64
2023-09-08T04:45:28.771Z,73.93
2023-09-08T04:48:32.943Z,73.34
2023-09-08T04:51:36.790Z,73.48
2023-09-08T04:54:42.236Z,73.37
2023-09-08T04:57:46.600Z,73.45
2023-09-08T05:00:52.544Z,73.96
2023-09-08T05:03:57.376Z,73.58
2023-09-08T05:07:01.019Z,73.27
2023-09-08T05:10:06.163Z,73.30
2023-09-08T05:13:24.123Z,73.52
2023-09-08T05:16:47.078Z,73.55
2023-09-08T05:19:54.921Z,73.25
2023-09-08T05:22:58.918Z,73.09
2023-09-08T05:26:03.150Z,73.12
2023-09-08T05:29:07.421Z,73.06
2023-09-08T05:32:12.707Z,73.09
2023-09-08T05:35:17.580Z,73.00
2023-09-08T05:38:21.610Z,72.59
2023-09-08T05:41:25.658Z,72.66
2023-09-08T05:44:29.493Z,72.65
2023-09-08T05:47:36.531Z,72.68
2023-09-08T05:50:40.772Z,72.33
2023-09-08T05:53:44.944Z,72.56
2023-09-08T05:56:49.629Z,72.41
2023-09-08T05:59:53.582Z,72.13
2023-09-08T06:02:58.696Z,72.73
2023-09-08T06:06:04.595Z,72.04
2023-09-08T06:09:09.706Z,71.93
2023-09-08T06:12:14.686Z,72.27
2023-09-08T06:15:18.442Z,71.47
2023-09-08T06:18:24.027Z,71.70
2023-09-08T06:21:28.160Z,71.45
2023-09-08T06:24:31.977Z,71.58
2023-09-08T06:27:35.892Z,71.47
2023-09-08T06:30:42.764Z,71.22
2023-09-08T06:33:49.412Z,71.31
2023-09-08T06:36:53.590Z,70.85
2023-09-08T06:39:57.707Z,70.30
2023-09-08T06:43:04.010Z,70.36
2023-09-08T06:46:21.133Z,70.25
2023-09-08T06:49:27.072Z,70.01
2023-09-08T06:52:30.898Z,70.19
2023-09-08T06:55:35.773Z,69.42
2023-09-08T06:58:39.920Z,69.53
2023-09-08T07:01:43.880Z,69.37
2023-09-08T07:04:49.633Z,69.32
2023-09-08T07:07:54.284Z,69.27
2023-09-08T07:10:57.775Z,68.89
2023-09-08T07:14:02.031Z,68.66
2023-09-08T07:17:06.182Z,68.69
2023-09-08T07:20:13.100Z,68.74
2023-09-08T07:23:18.316Z,68.30
2023-09-08T07:26:22.695Z,68.25
2023-09-08T07:29:26.650Z,68.10
2023-09-08T07:32:30.671Z,67.88
2023-09-08T07:35:39.256Z,67.98
2023-09-08T07:38:43.729Z,67.66
2023-09-08T07:41:47.763Z,67.48
2023-09-08T07:44:52.456Z,67.24
2023-09-08T07:47:56.035Z,67.07
2023-09-08T07:51:01.810Z,66.92
2023-09-08T07:54:07.621Z,66.67
2023-09-08T07:57:11.364Z,66.50
2023-09-08T08:00:16.545Z,66.18
2023-09-08T08:03:20.268Z,66.08
2023-09-08T08:06:25.473Z,65.76
2023-09-08T08:09:29.620Z,65.56
2023-09-08T08:12:33.216Z,65.34
2023-09-08T08:15:38.736Z,64.95
2023-09-08T08:18:42.368Z,64.90
2023-09-08T08:21:47.923Z,64.74
2023-09-08T08:24:51.659Z,64.21
2023-09-08T08:27:55.503Z,63.52
2023-09-08T08:30:59.163Z,62.90
2023-09-08T08:34:02.907Z,62.59
2023-09-08T08:37:07.949Z,62.21
2023-09-08T08:40:13.881Z,61.77
2023-09-08T08:43:17.936Z,61.65
2023-09-08T08:46:24.259Z,61.31
2023-09-08T08:49:29.747Z,60.79
2023-09-08T08:52:35.366Z,60.00
2023-09-08T08:55:39.220Z,60.46
2023-09-08T08:58:44.305Z,60.03
2023-09-08T09:01:49.018Z,59.83
2023-09-08T09:04:53.744Z,59.61
2023-09-08T09:08:04.429Z,59.37
2023-09-08T09:11:08.620Z,58.73
2023-09-08T09:14:12.039Z,58.21
2023-09-08T09:17:16.726Z,57.68
2023-09-08T09:20:22.378Z,57.45
2023-09-08T09:23:32.109Z,57.49
2023-09-08T09:26:35.914Z,57.32
2023-09-08T09:29:48.539Z,56.91
2023-09-08T09:33:02.477Z,56.95
2023-09-08T09:36:07.006Z,56.46
2023-09-08T09:39:12.054Z,56.19
2023-09-08T09:42:17.229Z,55.91
2023-09-08T09:45:21.289Z,55.38
2023-09-08T09:48:26.141Z,54.82
2023-09-08T09:51:29.648Z,54.85
2023-09-08T09:54:34.992Z,54.62
2023-09-08T09:57:40.559Z,54.48
2023-09-08T10:00:49.189Z,54.27
2023-09-08T10:03:56.374Z,54.51
2023-09-08T10:07:00.824Z,53.71
2023-09-08T10:10:07.280Z,53.64
2023-09-08T10:13:14.459Z,53.42
2023-09-08T10:16:22.067Z,52.98
2023-09-08T10:19:26.124Z,52.55
2023-09-08T10:22:33.268Z,52.32
2023-09-08T10:25:46.332Z,51.81
2023-09-08T10:28:52.289Z,52.35
2023-09-08T10:31:56.922Z,52.06
2023-09-08T10:35:03.900Z,51.69
2023-09-08T10:38:27.891Z,51.65
2023-09-08T10:41:33.542Z,52.01
2023-09-08T10:44:37.644Z,51.49
2023-09-08T10:47:59.184Z,51.50
2023-09-08T10:51:07.693Z,51.65
2023-09-08T10:54:12.862Z,51.12
2023-09-08T10:57:20.955Z,50.22
2023-09-08T11:00:24.755Z,50.87
2023-09-08T11:03:30.871Z,49.99
2023-09-08T11:06:35.004Z,49.89
2023-09-08T11:09:38.809Z,49.55
2023-09-08T11:12:43.691Z,48.94
2023-09-08T11:15:47.527Z,49.08
2023-09-08T11:18:53.955Z,48.65
2023-09-08T11:21:58.352Z,48.57
2023-09-08T11:25:05.738Z,48.09
2023-09-08T11:28:11.105Z,47.53
2023-09-08T11:31:14.881Z,46.98
2023-09-08T11:34:19.161Z,47.09
2023-09-08T11:37:23.005Z,46.49
2023-09-08T11:40:26.747Z,45.65
2023-09-08T11:43:33.977Z,45.61
2023-09-08T11:46:38.230Z,45.41
2023-09-08T11:49:43.184Z,45.28
2023-09-08T11:52:48.510Z,44.85
2023-09-08T11:55:52.380Z,44.59
2023-09-08T11:58:58.711Z,43.95
2023-09-08T12:02:03.390Z,43.47
2023-09-08T12:05:07.938Z,43.12
2023-09-08T12:08:11.674Z,42.94
2023-09-08T12:11:15.393Z,42.62
2023-09-08T12:14:20.247Z,42.54
2023-09-08T12:17:26.737Z,42.09
2023-09-08T12:20:30.579Z,41.88
2023-09-08T12:23:34.432Z,41.58
2023-09-08T12:26:38.714Z,40.65
2023-09-08T12:29:44.154Z,38.99
2023-09-08T12:32:50.002Z,36.78
2023-09-08T12:35:54.618Z,33.01
2023-09-08T12:38:58.221Z,29.84
2023-09-08T12:42:01.878Z,26.82
2023-09-08T12:45:09.152Z,25.04
2023-09-08T12:48:13.148Z,22.72
2023-09-08T12:51:16.676Z,22.04
2023-09-08T12:54:20.742Z,21.39
2023-09-08T12:57:24.202Z,20.32
2023-09-08T13:00:30.136Z,19.08
2023-09-08T13:03:33.943Z,18.99
2023-09-08T13:06:37.620Z,17.96
2023-09-08T13:09:41.562Z,17.54
2023-09-08T13:12:45.409Z,17.35
2023-09-08T13:15:51.340Z,16.52
2023-09-08T13:18:56.223Z,16.11
2023-09-08T13:21:59.658Z,16.10
2023-09-08T13:25:03.684Z,15.24
2023-09-08T13:28:07.738Z,15.06
2023-09-08T13:31:13.132Z,14.15
2023-09-08T13:34:16.812Z,14.61
2023-09-08T13:37:20.752Z,13.96
2023-09-08T13:40:24.548Z,13.70
2023-09-08T13:43:28.740Z,14.47
2023-09-08T13:46:33.663Z,13.38
2023-09-08T13:49:38.571Z,13.63
2023-09-08T13:52:43.609Z,13.11
2023-09-08T13:55:51.461Z,12.88
2023-09-08T13:58:57.120Z,13.24
2023-09-08T14:02:32.900Z,13.24
2023-09-08T14:05:31.700Z,12.89
2023-09-08T14:09:09.531Z,13.41
2023-09-08T14:15:10.935Z,13.85
2023-09-08T14:18:16.102Z,14.08
2023-09-08T14:21:20.219Z,13.77
2023-09-08T14:24:23.890Z,14.02
2023-09-08T14:27:27.681Z,14.10
2023-09-08T14:30:31.227Z,14.31
2023-09-08T14:33:36.501Z,13.86
2023-09-08T14:36:40.243Z,13.92
2023-09-08T14:39:44.016Z,14.32
2023-09-08T14:42:47.517Z,14.21
2023-09-08T14:45:51.216Z,14.07
2023-09-08T14:48:56.354Z,14.07
2023-09-08T14:52:01.044Z,14.34
2023-09-08T14:55:04.834Z,14.50
2023-09-08T14:58:08.878Z,14.89
2023-09-08T15:01:14.985Z,15.11
2023-09-08T15:04:20.434Z,14.75
2023-09-08T15:07:24.210Z,15.47
2023-09-08T15:10:28.093Z,15.16
2023-09-08T15:13:32.037Z,15.22
2023-09-08T15:16:35.890Z,15.48
2023-09-08T15:19:41.325Z,16.17
2023-09-08T15:22:45.546Z,16.38
2023-09-08T15:25:57.054Z,15.53
2023-09-08T15:29:01.307Z,15.98
2023-09-08T15:32:06.965Z,16.62
2023-09-08T15:35:12.594Z,16.68
2023-09-08T15:38:16.935Z,17.03
2023-09-08T15:41:21.408Z,17.32
2023-09-08T15:44:25.819Z,18.14
2023-09-08T15:47:29.487Z,18.91
2023-09-08T15:50:34.543Z,19.18
2023-09-08T15:53:38.704Z,19.62
2023-09-08T15:56:43.059Z,19.57
2023-09-08T15:59:48.376Z,20.25
2023-09-08T16:02:51.856Z,20.74
2023-09-08T16:05:57.154Z,20.72
2023-09-08T16:09:00.988Z,21.58
2023-09-08T16:12:05.298Z,22.08
2023-09-08T16:15:11.220Z,22.96
2023-09-08T16:18:14.904Z,23.63
2023-09-08T16:21:19.870Z,24.56
2023-09-08T16:24:23.905Z,24.96
2023-09-08T16:27:28.075Z,25.78
2023-09-08T16:30:31.627Z,26.89
2023-09-08T16:33:36.826Z,27.51
2023-09-08T16:36:43.060Z,28.28
2023-09-08T16:39:46.901Z,28.81
2023-09-08T16:42:50.615Z,29.80
2023-09-08T16:45:54.682Z,30.98
2023-09-08T16:48:58.063Z,32.09
2023-09-08T16:52:03.606Z,33.37
2023-09-08T16:55:12.286Z,35.06
2023-09-08T16:58:16.301Z,36.52
2023-09-08T17:01:20.186Z,37.72
2023-09-08T17:04:23.891Z,39.03
2023-09-08T17:07:29.100Z,39.75
2023-09-08T17:10:33.157Z,40.49
2023-09-08T17:13:36.939Z,41.12
2023-09-08T17:16:41.312Z,42.00
2023-09-08T17:19:44.872Z,43.16
2023-09-08T17:22:50.644Z,44.00
2023-09-08T17:25:54.392Z,44.08
2023-09-08T17:28:58.045Z,44.90
2023-09-08T17:32:01.624Z,45.58
2023-09-08T17:35:06.724Z,46.16
2023-09-08T17:38:11.946Z,46.71
2023-09-08T17:41:15.913Z,47.09
2023-09-08T17:44:19.700Z,47.33
2023-09-08T17:47:23.783Z,47.71
2023-09-08T17:50:27.796Z,48.30
2023-09-08T17:53:36.881Z,48.88
2023-09-08T17:56:41.333Z,48.63
2023-09-08T17:59:45.323Z,49.06
2023-09-08T18:02:49.870Z,49.39
2023-09-08T18:05:53.645Z,49.86
2023-09-08T18:08:58.505Z,50.41
2023-09-08T18:12:02.517Z,50.60
2023-09-08T18:15:08.411Z,51.12
2023-09-08T18:18:12.770Z,51.03
2023-09-08T18:21:16.268Z,51.28
2023-09-08T18:24:23.244Z,52.38
2023-09-08T18:27:27.722Z,52.24
2023-09-08T18:30:33.031Z,52.56
2023-09-08T18:33:37.036Z,52.77
2023-09-08T18:36:40.896Z,53.05
2023-09-08T18:39:45.848Z,53.59
2023-09-08T18:42:49.863Z,53.40
2023-09-08T18:45:54.153Z,53.61
2023-09-08T18:48:58.121Z,54.10
2023-09-08T18:52:01.608Z,54.32
2023-09-08T18:55:08.331Z,55.35
2023-09-08T18:58:11.972Z,54.91
2023-09-08T19:01:16.108Z,54.93
2023-09-08T19:04:20.260Z,55.14
2023-09-08T19:07:24.059Z,55.64
2023-09-08T19:10:28.900Z,56.16
2023-09-08T19:13:32.919Z,56.01
2023-09-08T19:16:36.943Z,55.94
2023-09-08T19:19:41.292Z,56.45
2023-09-08T19:22:44.725Z,56.62
2023-09-08T19:25:50.130Z,57.34
2023-09-08T19:28:54.138Z,57.24
2023-09-08T19:31:57.820Z,57.33
2023-09-08T19:35:02.027Z,57.40
2023-09-08T19:38:06.342Z,57.72
2023-09-08T19:41:11.517Z,58.21
2023-09-08T19:44:15.435Z,57.74
2023-09-08T19:47:18.897Z,58.07
2023-09-08T19:50:22.840Z,58.27
2023-09-08T19:53:26.213Z,58.64
2023-09-08T19:56:31.624Z,59.09
2023-09-08T19:59:35.372Z,59.04
2023-09-08T20:02:39.423Z,59.15
2023-09-08T20:05:44.477Z,59.21
2023-09-08T20:08:48.161Z,59.77
2023-09-08T20:11:53.997Z,59.91
2023-09-08T20:14:57.906Z,60.10
2023-09-08T20:18:01.550Z,59.94
2023-09-08T20:21:06.919Z,60.34
2023-09-08T20:24:10.668Z,60.76
2023-09-08T20:27:16.151Z,61.23
2023-09-08T20:30:20.611Z,61.00
2023-09-08T20:33:24.699Z,61.07
2023-09-08T20:36:28.330Z,61.34
2023-09-08T20:39:32.090Z,61.37
2023-09-08T20:42:37.226Z,61.79
2023-09-08T20:45:41.759Z,61.92
2023-09-08T20:48:45.234Z,61.60
2023-09-08T20:51:49.208Z,61.94
2023-09-08T20:54:52.627Z,62.11
2023-09-08T20:57:57.859Z,62.67
2023-09-08T21:01:02.438Z,62.49
2023-09-08T21:04:08.266Z,62.93
2023-09-08T21:07:11.980Z,62.72
2023-09-08T21:10:15.863Z,63.30
2023-09-08T21:13:21.111Z,63.37
2023-09-08T21:16:25.149Z,63.38
2023-09-08T21:19:29.975Z,63.48
2023-09-08T21:22:34.390Z,63.75
2023-09-08T21:25:38.026Z,63.55
2023-09-08T21:28:43.367Z,64.27
2023-09-08T21:31:50.116Z,64.10
2023-09-08T21:34:54.761Z,64.35
2023-09-08T21:37:58.387Z,64.46
2023-09-08T21:41:08.726Z,65.24
2023-09-08T21:44:13.746Z,64.88
2023-09-08T21:47:17.649Z,64.93
2023-09-08T21:50:22.794Z,64.56
2023-09-08T21:53:26.930Z,65.12
2023-09-08T21:56:30.352Z,65.17
2023-09-08T21:59:35.740Z,65.70
2023-09-08T22:02:39.513Z,65.41
2023-09-08T22:05:44.441Z,65.43
2023-09-08T22:08:48.637Z,65.43
2023-09-08T22:11:52.356Z,65.79
2023-09-08T22:14:57.658Z,65.58
2023-09-08T22:18:01.710Z,65.80
2023-09-08T22:21:06.763Z,65.84
2023-09-08T22:24:11.536Z,65.93
2023-09-08T22:27:15.700Z,65.93
2023-09-08T22:30:21.985Z,66.29
2023-09-08T22:33:26.562Z,66.58
2023-09-08T22:36:30.418Z,66.00
2023-09-08T22:39:34.818Z,66.39
2023-09-08T22:42:38.525Z,66.62
2023-09-08T22:45:45.438Z,67.56
2023-09-08T22:48:49.498Z,67.09
2023-09-08T22:51:53.895Z,67.01
2023-09-08T22:55:05.725Z,67.19
2023-09-08T22:58:12.448Z,66.97
2023-09-08T23:01:17.839Z,67.40
2023-09-08T23:04:21.646Z,67.52
2023-09-08T23:07:25.879Z,67.40
2023-09-08T23:10:29.827Z,67.58
2023-09-08T23:13:33.581Z,67.62
2023-09-08T23:16:38.668Z,67.90
2023-09-08T23:19:42.656Z,67.64
2023-09-08T23:22:46.624Z,67.91
2023-09-08T23:25:51.861Z,67.82
2023-09-08T23:28:56.160Z,68.36
2023-09-08T23:32:01.399Z,68.53
2023-09-08T23:35:06.887Z,68.42
2023-09-08T23:38:10.623Z,68.20
2023-09-08T23:41:14.356Z,68.47
2023-09-08T23:44:18.060Z,68.63
2023-09-08T23:47:23.482Z,68.92
2023-09-08T23:50:53.609Z,70.79
2023-09-08T23:53:57.120Z,68.88
2023-09-08T23:57:02.581Z,68.98
